createdAt,value
2019-04-05T00:01:52.484Z,100346.50
2019-04-05T00:04:26.231Z,100334.80
2019-04-05T00:06:59.970Z,100334.38
2019-04-05T00:09:33.736Z,100325.42
2019-04-05T00:12:07.472Z,100320.73
2019-04-05T00:14:41.241Z,100341.34
2019-04-05T00:17:14.967Z,100341.34
2019-04-05T00:19:48.708Z,100338.58
2019-04-05T00:22:22.451Z,100339.66
2019-04-05T00:24:56.196Z,100339.66
2019-04-05T00:27:29.927Z,100346.06
2019-04-05T00:30:08.171Z,100363.13
2019-04-05T00:32:41.939Z,100363.13
2019-04-05T00:35:15.685Z,100359.22
2019-04-05T00:37:49.427Z,100362.37
2019-04-05T00:40:23.153Z,100364.69
2019-04-05T00:42:56.911Z,100361.39
2019-04-05T00:45:30.649Z,100349.77
2019-04-05T00:48:04.466Z,100349.77
2019-04-05T00:50:38.223Z,100353.18
2019-04-05T00:53:12.939Z,100353.18
2019-04-05T00:55:46.667Z,100333.67
2019-04-05T00:58:20.412Z,100333.67
2019-04-05T01:00:54.254Z,100348.15
2019-04-05T01:03:27.992Z,100348.15
2019-04-05T01:06:01.725Z,100342.84
2019-04-05T01:08:35.550Z,100357.86
2019-04-05T01:11:09.299Z,100356.15
2019-04-05T01:13:43.038Z,100365.45
2019-04-05T01:16:16.805Z,100363.32
2019-04-05T01:18:50.565Z,100326.99
2019-04-05T01:21:24.599Z,100342.39
2019-04-05T01:23:58.321Z,100342.39
2019-04-05T01:26:32.076Z,100355.02
2019-04-05T01:29:05.831Z,100355.30
2019-04-05T01:31:39.581Z,100328.72
2019-04-05T01:34:13.329Z,100357.77
2019-04-05T01:36:47.068Z,100357.77
2019-04-05T01:39:20.849Z,100361.14
2019-04-05T01:41:54.594Z,100373.93
2019-04-05T01:44:28.335Z,100376.77
2019-04-05T01:47:02.052Z,100376.77
2019-04-05T01:49:35.796Z,100376.73
2019-04-05T01:52:09.528Z,100373.45
2019-04-05T01:54:43.282Z,100376.55
2019-04-05T01:57:17.020Z,100376.55
2019-04-05T01:59:50.752Z,100384.84
2019-04-05T02:02:24.498Z,100389.46
2019-04-05T02:04:58.226Z,100418.95
2019-04-05T02:07:31.998Z,100418.95
2019-04-05T02:10:08.913Z,100409.59
2019-04-05T02:12:42.667Z,100412.38
2019-04-05T02:15:24.596Z,100412.38
2019-04-05T02:17:58.342Z,100398.65
2019-04-05T02:20:32.068Z,100384.23
2019-04-05T02:23:05.822Z,100384.23
2019-04-05T02:25:39.558Z,100382.48
2019-04-05T02:28:13.302Z,100382.48
2019-04-05T02:30:47.045Z,100410.28
2019-04-05T02:33:20.778Z,100426.20
2019-04-05T02:35:54.591Z,100425.95
2019-04-05T02:38:28.336Z,100425.95
2019-04-05T02:41:02.098Z,100397.28
2019-04-05T02:43:35.899Z,100407.06
2019-04-05T02:46:22.764Z,100415.66
2019-04-05T02:48:45.139Z,100422.10
2019-04-05T02:51:21.415Z,100414.45
2019-04-05T02:53:55.126Z,100420.63
2019-04-05T02:56:29.357Z,100420.63
2019-04-05T02:59:03.067Z,100427.70
2019-04-05T03:01:36.821Z,100427.31
2019-04-05T03:04:10.528Z,100430.94
2019-04-05T03:06:44.248Z,100430.94
2019-04-05T03:09:18.062Z,100427.92
2019-04-05T03:11:51.760Z,100432.59
2019-04-05T03:14:25.470Z,100432.59
2019-04-05T03:16:59.212Z,100443.15
2019-04-05T03:19:33.298Z,100446.08
2019-04-05T03:22:08.740Z,100437.95
2019-04-05T03:24:43.432Z,100436.22
2019-04-05T03:27:19.847Z,100434.98
2019-04-05T03:29:53.570Z,100434.98
2019-04-05T03:32:27.343Z,100444.66
2019-04-05T03:35:01.165Z,100438.42
2019-04-05T03:37:34.872Z,100438.42
2019-04-05T03:40:08.629Z,100429.44
2019-04-05T03:42:42.754Z,100425.59
2019-04-05T03:45:16.482Z,100425.59
2019-04-05T03:47:50.206Z,100417.23
2019-04-05T03:50:23.925Z,100430.03
2019-04-05T03:52:57.660Z,100435.30
2019-04-05T03:55:31.380Z,100420.47
2019-04-05T03:58:05.093Z,100438.20
2019-04-05T04:00:38.804Z,100419.31
2019-04-05T04:03:12.757Z,100419.31
2019-04-05T04:05:46.498Z,100424.37
2019-04-05T04:08:23.250Z,100422.80
2019-04-05T04:10:55.626Z,100422.80
2019-04-05T04:13:29.362Z,100428.84
2019-04-05T04:16:03.129Z,100428.84
2019-04-05T04:18:37.017Z,100421.33
2019-04-05T04:21:22.797Z,100427.64
2019-04-05T04:23:56.528Z,100421.58
2019-04-05T04:26:30.707Z,100421.58
2019-04-05T04:29:04.588Z,100433.34
2019-04-05T04:31:38.372Z,100432.78
2019-04-05T04:34:12.855Z,100432.78
2019-04-05T04:36:46.647Z,100424.81
2019-04-05T04:39:20.349Z,100424.00
2019-04-05T04:41:54.074Z,100424.00
2019-04-05T04:44:27.780Z,100423.57
2019-04-05T04:47:01.496Z,100423.57
2019-04-05T04:49:35.212Z,100425.89
2019-04-05T04:52:08.920Z,100425.89
2019-04-05T04:54:42.652Z,100398.97
2019-04-05T04:57:16.356Z,100398.97
2019-04-05T04:59:50.070Z,100416.14
2019-04-05T05:02:23.796Z,100419.70
2019-04-05T05:04:57.512Z,100419.70
2019-04-05T05:07:31.232Z,100427.14
2019-04-05T05:10:07.804Z,100427.44
2019-04-05T05:12:41.502Z,100430.37
2019-04-05T05:15:15.238Z,100430.37
2019-04-05T05:17:58.400Z,100425.34
2019-04-05T05:20:24.357Z,100425.34
2019-04-05T05:22:58.082Z,100417.72
2019-04-05T05:25:31.827Z,100439.78
2019-04-05T05:28:05.552Z,100442.97
2019-04-05T05:30:39.265Z,100441.77
2019-04-05T05:33:12.977Z,100447.20
2019-04-05T05:35:46.721Z,100447.20
2019-04-05T05:38:20.437Z,100425.73
2019-04-05T05:40:54.219Z,100443.80
2019-04-05T05:43:27.949Z,100461.88
2019-04-05T05:46:01.670Z,100459.76
2019-04-05T05:48:35.379Z,100459.76
2019-04-05T05:51:09.093Z,100458.78
2019-04-05T05:53:42.764Z,100458.83
2019-04-05T05:56:16.493Z,100460.94
2019-04-05T05:58:50.212Z,100464.06
2019-04-05T06:01:23.927Z,100466.09
2019-04-05T06:03:57.643Z,100464.91
2019-04-05T06:06:31.349Z,100466.23
2019-04-05T06:09:06.917Z,100466.23
2019-04-05T06:11:40.626Z,100474.94
2019-04-05T06:14:14.336Z,100474.94
2019-04-05T06:16:48.047Z,100478.27
2019-04-05T06:19:21.765Z,100473.41
2019-04-05T06:21:55.549Z,100473.67
2019-04-05T06:24:29.263Z,100480.14
2019-04-05T06:27:02.990Z,100480.14
2019-04-05T06:29:36.675Z,100473.98
2019-04-05T06:32:10.381Z,100465.25
2019-04-05T06:34:44.097Z,100473.78
2019-04-05T06:37:17.798Z,100460.05
2019-04-05T06:39:51.467Z,100460.05
2019-04-05T06:42:25.186Z,100465.30
2019-04-05T06:44:58.896Z,100468.33
2019-04-05T06:47:32.596Z,100474.30
2019-04-05T06:50:06.563Z,100483.94
2019-04-05T06:52:40.276Z,100477.45
2019-04-05T06:55:13.992Z,100471.00
2019-04-05T06:57:47.699Z,100475.19
2019-04-05T07:00:28.895Z,100477.15
2019-04-05T07:03:02.683Z,100490.91
2019-04-05T07:05:36.390Z,100490.91
2019-04-05T07:08:10.110Z,100505.09
2019-04-05T07:10:45.322Z,100505.09
2019-04-05T07:13:19.226Z,100523.59
2019-04-05T07:15:52.947Z,100502.04
2019-04-05T07:18:35.591Z,100528.61
2019-04-05T07:21:02.124Z,100530.22
2019-04-05T07:23:35.809Z,100524.74
2019-04-05T07:26:09.506Z,100528.06
2019-04-05T07:28:43.204Z,100528.06
2019-04-05T07:31:16.938Z,100509.18
2019-04-05T07:33:50.643Z,100498.89
2019-04-05T07:36:24.375Z,100504.15
2019-04-05T07:38:58.145Z,100508.23
2019-04-05T07:41:32.065Z,100512.30
2019-04-05T07:44:05.791Z,100512.30
2019-04-05T07:46:39.503Z,100515.09
2019-04-05T07:49:13.231Z,100515.09
2019-04-05T07:51:46.955Z,100519.88
2019-04-05T07:54:20.666Z,100520.36
2019-04-05T07:56:54.396Z,100518.84
2019-04-05T07:59:28.098Z,100518.84
2019-04-05T08:02:01.833Z,100531.53
2019-04-05T08:04:35.555Z,100531.53
2019-04-05T08:07:09.284Z,100529.39
2019-04-05T08:09:42.988Z,100529.39
2019-04-05T08:12:16.719Z,100534.73
2019-04-05T08:14:50.419Z,100525.77
2019-04-05T08:17:24.131Z,100538.22
2019-04-05T08:19:57.846Z,100535.44
2019-04-05T08:22:32.433Z,100514.91
2019-04-05T08:25:06.251Z,100532.91
2019-04-05T08:27:39.976Z,100529.80
2019-04-05T08:30:13.687Z,100529.80
2019-04-05T08:32:47.399Z,100534.67
2019-04-05T08:35:21.130Z,100531.50
2019-04-05T08:37:54.844Z,100531.50
2019-04-05T08:40:28.553Z,100527.02
2019-04-05T08:43:02.254Z,100526.62
2019-04-05T08:45:35.982Z,100530.67
2019-04-05T08:48:09.680Z,100530.67
2019-04-05T08:50:43.395Z,100527.66
2019-04-05T08:53:17.098Z,100523.55
2019-04-05T08:55:50.831Z,100522.98
2019-04-05T08:58:33.339Z,100524.23
2019-04-05T09:00:59.979Z,100524.87
2019-04-05T09:03:33.714Z,100524.91
2019-04-05T09:06:07.550Z,100517.48
2019-04-05T09:08:41.280Z,100517.48
2019-04-05T09:11:15.008Z,100510.63
2019-04-05T09:13:48.828Z,100523.64
2019-04-05T09:16:22.578Z,100512.27
2019-04-05T09:18:56.311Z,100510.92
2019-04-05T09:21:30.058Z,100505.84
2019-04-05T09:24:03.857Z,100505.84
2019-04-05T09:26:37.692Z,100514.03
2019-04-05T09:29:11.357Z,100514.03
2019-04-05T09:31:45.092Z,100512.35
2019-04-05T09:34:18.810Z,100512.35
2019-04-05T09:36:53.010Z,100508.12
2019-04-05T09:39:26.716Z,100508.34
2019-04-05T09:42:00.418Z,100509.39
2019-04-05T09:44:34.153Z,100514.34
2019-04-05T09:47:07.879Z,100516.12
2019-04-05T09:49:41.978Z,100516.12
2019-04-05T09:52:15.667Z,100513.13
2019-04-05T09:54:49.387Z,100513.13
2019-04-05T09:57:23.110Z,100512.10
2019-04-05T09:59:56.823Z,100490.34
2019-04-05T10:02:31.873Z,100511.58
2019-04-05T10:05:06.231Z,100501.39
2019-04-05T10:07:53.835Z,100505.64
2019-04-05T10:10:15.339Z,100505.64
2019-04-05T10:12:49.039Z,100518.31
2019-04-05T10:15:22.760Z,100509.16
2019-04-05T10:17:56.475Z,100509.44
2019-04-05T10:20:30.208Z,100512.83
2019-04-05T10:23:03.909Z,100513.56
2019-04-05T10:25:37.621Z,100514.59
2019-04-05T10:28:11.335Z,100514.59
2019-04-05T10:30:45.068Z,100526.97
2019-04-05T10:33:18.822Z,100528.87
2019-04-05T10:35:52.569Z,100528.87
2019-04-05T10:38:26.277Z,100524.42
2019-04-05T10:41:00.007Z,100520.72
2019-04-05T10:43:33.730Z,100527.09
2019-04-05T10:46:07.429Z,100527.09
2019-04-05T10:48:41.147Z,100521.45
2019-04-05T10:51:14.885Z,100521.02
2019-04-05T10:53:48.606Z,100519.44
2019-04-05T10:56:22.309Z,100519.44
2019-04-05T10:58:56.029Z,100512.08
2019-04-05T11:01:29.769Z,100518.03
2019-04-05T11:04:03.501Z,100516.19
2019-04-05T11:06:37.200Z,100515.91
2019-04-05T11:09:12.060Z,100518.15
2019-04-05T11:11:45.761Z,100519.80
2019-04-05T11:14:19.494Z,100526.48
2019-04-05T11:16:58.701Z,100526.09
2019-04-05T11:19:30.277Z,100526.09
2019-04-05T11:22:04.119Z,100519.34
2019-04-05T11:24:37.835Z,100522.17
2019-04-05T11:27:12.061Z,100516.68
2019-04-05T11:29:45.787Z,100521.22
2019-04-05T11:32:19.510Z,100531.13
2019-04-05T11:34:53.223Z,100527.80
2019-04-05T11:37:26.935Z,100527.59
2019-04-05T11:40:00.640Z,100525.46
2019-04-05T11:42:35.158Z,100525.46
2019-04-05T11:45:08.980Z,100525.56
2019-04-05T11:47:42.704Z,100526.67
2019-04-05T11:50:16.417Z,100526.67
2019-04-05T11:52:50.148Z,100519.97
2019-04-05T11:55:23.900Z,100510.97
2019-04-05T11:57:57.617Z,100506.81
2019-04-05T12:00:31.335Z,100506.81
2019-04-05T12:03:05.039Z,100516.42
2019-04-05T12:05:38.840Z,100502.84
2019-04-05T12:08:12.559Z,100502.84
2019-04-05T12:10:46.553Z,100526.98
2019-04-05T12:13:20.272Z,100520.74
2019-04-05T12:15:53.991Z,100520.74
2019-04-05T12:18:27.705Z,100528.84
2019-04-05T12:21:04.964Z,100530.28
2019-04-05T12:23:36.834Z,100530.28
2019-04-05T12:26:10.543Z,100536.38
2019-04-05T12:28:44.259Z,100532.91
2019-04-05T12:31:17.989Z,100540.36
2019-04-05T12:33:52.484Z,100541.61
2019-04-05T12:36:26.385Z,100536.76
2019-04-05T12:39:03.461Z,100534.70
2019-04-05T12:41:35.524Z,100534.70
2019-04-05T12:44:09.242Z,100530.21
2019-04-05T12:46:43.453Z,100517.94
2019-04-05T12:49:18.382Z,100531.16
2019-04-05T12:51:52.089Z,100520.77
2019-04-05T12:54:25.813Z,100524.50
2019-04-05T12:56:59.528Z,100524.55
2019-04-05T12:59:33.234Z,100518.67
2019-04-05T13:02:06.962Z,100521.59
2019-04-05T13:04:40.676Z,100521.59
2019-04-05T13:07:14.387Z,100526.33
2019-04-05T13:09:48.111Z,100527.16
2019-04-05T13:12:21.810Z,100527.63
2019-04-05T13:15:10.939Z,100527.63
2019-04-05T13:17:31.625Z,100508.63
2019-04-05T13:20:07.112Z,100508.63
2019-04-05T13:22:40.794Z,100524.26
2019-04-05T13:25:14.543Z,100524.26
2019-04-05T13:27:48.244Z,100523.84
2019-04-05T13:30:21.952Z,100524.93
2019-04-05T13:32:55.667Z,100523.55
2019-04-05T13:35:29.476Z,100523.55
2019-04-05T13:38:03.194Z,100513.37
2019-04-05T13:40:36.931Z,100487.05
2019-04-05T13:43:10.694Z,100487.05
2019-04-05T13:45:44.426Z,100506.34
2019-04-05T13:48:18.134Z,100502.56
2019-04-05T13:50:51.852Z,100504.38
2019-04-05T13:53:25.566Z,100511.25
2019-04-05T13:55:59.282Z,100511.25
2019-04-05T13:58:33.017Z,100491.55
2019-04-05T14:01:06.727Z,100495.66
2019-04-05T14:03:40.439Z,100504.27
2019-04-05T14:06:14.141Z,100495.41
2019-04-05T14:08:47.871Z,100495.41
2019-04-05T14:11:21.581Z,100501.28
2019-04-05T14:13:55.315Z,100495.25
2019-04-05T14:16:29.032Z,100497.16
2019-04-05T14:19:02.757Z,100496.89
2019-04-05T14:21:40.842Z,100496.89
2019-04-05T14:24:12.789Z,100493.35
2019-04-05T14:26:46.537Z,100489.62
2019-04-05T14:29:20.263Z,100486.80
2019-04-05T14:31:53.974Z,100486.55
2019-04-05T14:34:27.693Z,100483.94
2019-04-05T14:37:01.425Z,100474.63
2019-04-05T14:39:35.143Z,100474.63
2019-04-05T14:42:10.279Z,100480.72
2019-04-05T14:44:44.273Z,100480.72
2019-04-05T14:47:19.904Z,100489.52
2019-04-05T14:49:53.422Z,100478.09
2019-04-05T14:52:28.906Z,100478.09
2019-04-05T14:55:02.580Z,100475.97
2019-04-05T14:57:36.720Z,100475.97
2019-04-05T15:00:10.534Z,100471.12
2019-04-05T15:02:44.298Z,100471.12
2019-04-05T15:05:18.032Z,100473.00
2019-04-05T15:07:54.710Z,100469.49
2019-04-05T15:10:27.433Z,100470.61
2019-04-05T15:13:04.804Z,100470.61
2019-04-05T15:15:38.514Z,100473.61
2019-04-05T15:18:12.324Z,100473.53
2019-04-05T15:20:46.160Z,100474.55
2019-04-05T15:23:19.930Z,100472.05
2019-04-05T15:25:53.647Z,100478.73
2019-04-05T15:28:27.363Z,100472.45
2019-04-05T15:31:01.094Z,100472.91
2019-04-05T15:33:34.817Z,100473.35
2019-04-05T15:36:08.560Z,100473.35
2019-04-05T15:38:42.282Z,100476.16
2019-04-05T15:41:16.012Z,100478.41
2019-04-05T15:43:49.765Z,100475.44
2019-04-05T15:46:23.484Z,100473.00
2019-04-05T15:48:57.218Z,100472.92
2019-04-05T15:51:30.926Z,100470.84
2019-04-05T15:54:04.627Z,100470.84
2019-04-05T15:56:38.340Z,100472.71
2019-04-05T15:59:12.052Z,100464.31
2019-04-05T16:01:45.769Z,100460.53
2019-04-05T16:04:19.529Z,100441.56
2019-04-05T16:06:53.266Z,100441.56
2019-04-05T16:09:27.132Z,100465.41
2019-04-05T16:12:00.834Z,100465.41
2019-04-05T16:14:34.554Z,100458.91
2019-04-05T16:17:08.304Z,100451.63
2019-04-05T16:19:42.093Z,100457.52
2019-04-05T16:22:15.828Z,100450.64
2019-04-05T16:24:49.636Z,100448.64
2019-04-05T16:27:23.421Z,100452.81
2019-04-05T16:29:57.186Z,100452.81
2019-04-05T16:32:30.917Z,100453.78
2019-04-05T16:35:07.286Z,100448.58
2019-04-05T16:37:41.038Z,100458.84
2019-04-05T16:40:14.795Z,100443.61
2019-04-05T16:43:01.501Z,100443.61
2019-04-05T16:45:23.994Z,100462.10
2019-04-05T16:47:57.746Z,100462.10
2019-04-05T16:50:31.494Z,100466.94
2019-04-05T16:53:05.225Z,100466.94
2019-04-05T16:55:38.939Z,100465.43
2019-04-05T16:58:12.765Z,100463.02
2019-04-05T17:00:46.589Z,100458.94
2019-04-05T17:03:20.344Z,100467.80
2019-04-05T17:05:54.065Z,100465.62
2019-04-05T17:08:27.883Z,100465.62
2019-04-05T17:11:01.595Z,100476.54
2019-04-05T17:13:35.425Z,100473.22
2019-04-05T17:16:09.171Z,100473.22
2019-04-05T17:18:42.872Z,100478.19
2019-04-05T17:21:16.638Z,100478.81
2019-04-05T17:23:50.354Z,100478.56
2019-04-05T17:26:24.098Z,100478.56
2019-04-05T17:28:57.869Z,100479.53
2019-04-05T17:31:31.613Z,100469.11
2019-04-05T17:34:05.354Z,100476.40
2019-04-05T17:36:39.088Z,100474.77
2019-04-05T17:39:12.807Z,100483.72
2019-04-05T17:41:46.560Z,100483.72
2019-04-05T17:44:20.283Z,100485.56
2019-04-05T17:46:54.068Z,100483.94
2019-04-05T17:49:27.820Z,100486.80
2019-04-05T17:52:01.635Z,100486.80
2019-04-05T17:54:35.375Z,100485.66
2019-04-05T17:57:09.201Z,100493.94
2019-04-05T17:59:42.979Z,100493.94
2019-04-05T18:02:16.815Z,100494.80
2019-04-05T18:04:50.622Z,100504.30
2019-04-05T18:07:24.467Z,100504.30
2019-04-05T18:09:58.209Z,100503.91
2019-04-05T18:12:31.950Z,100503.91
2019-04-05T18:15:05.683Z,100504.13
2019-04-05T18:17:39.427Z,100505.85
2019-04-05T18:20:13.537Z,100505.85
2019-04-05T18:22:47.307Z,100510.00
2019-04-05T18:25:21.084Z,100512.76
2019-04-05T18:27:54.808Z,100516.69
2019-04-05T18:30:28.552Z,100516.69
2019-04-05T18:33:02.285Z,100518.10
2019-04-05T18:35:35.994Z,100525.97
2019-04-05T18:38:09.736Z,100525.97
2019-04-05T18:40:43.510Z,100522.19
2019-04-05T18:43:17.249Z,100522.19
2019-04-05T18:45:51.000Z,100531.63
2019-04-05T18:48:24.733Z,100531.63
2019-04-05T18:50:58.499Z,100532.53
2019-04-05T18:53:37.991Z,100536.66
2019-04-05T18:56:07.761Z,100533.89
2019-04-05T18:58:41.520Z,100543.20
2019-04-05T19:01:15.371Z,100533.34
2019-04-05T19:03:49.123Z,100537.59
2019-04-05T19:06:22.867Z,100538.52
2019-04-05T19:08:56.673Z,100538.31
2019-04-05T19:11:30.490Z,100533.78
2019-04-05T19:14:04.301Z,100533.78
2019-04-05T19:16:38.042Z,100534.69
2019-04-05T19:19:12.157Z,100533.95
2019-04-05T19:21:45.960Z,100535.61
2019-04-05T19:24:19.816Z,100535.93
2019-04-05T19:26:53.539Z,100535.93
2019-04-05T19:29:27.260Z,100541.11
2019-04-05T19:50:10.454Z,100557.27
2019-04-05T19:52:44.173Z,100557.44
2019-04-05T19:55:18.019Z,100557.44
2019-04-05T19:57:51.798Z,100548.05
2019-04-05T20:00:25.531Z,100549.50
2019-04-05T20:02:59.278Z,100549.50
2019-04-05T20:05:33.018Z,100551.20
2019-04-05T20:08:06.820Z,100554.82
2019-04-05T20:10:40.587Z,100546.56
2019-04-05T20:13:14.315Z,100553.29
2019-04-05T20:15:48.142Z,100553.29
2019-04-05T20:18:21.857Z,100549.39
2019-04-05T20:20:55.603Z,100551.08
2019-04-05T20:23:29.337Z,100546.77
2019-04-05T20:26:03.058Z,100552.12
2019-04-05T20:28:36.787Z,100552.50
2019-04-05T20:31:12.306Z,100552.50
2019-04-05T20:33:46.063Z,100554.49
2019-04-05T20:36:19.799Z,100554.95
2019-04-05T20:38:53.567Z,100560.69
2019-04-05T20:41:27.338Z,100560.27
2019-04-05T20:44:01.171Z,100564.03
2019-04-05T20:46:34.902Z,100564.03
2019-04-05T20:49:09.227Z,100560.39
2019-04-05T20:51:42.952Z,100569.92
2019-04-05T20:54:24.495Z,100566.72
2019-04-05T20:56:52.125Z,100574.83
2019-04-05T20:59:25.868Z,100574.83
2019-04-05T21:01:59.618Z,100576.49
2019-04-05T21:04:33.358Z,100572.74
2019-04-05T21:07:07.102Z,100572.74
2019-04-05T21:09:41.011Z,100571.91
2019-04-05T21:12:14.896Z,100559.94
2019-04-05T21:14:48.646Z,100550.87
2019-04-05T21:17:22.479Z,100553.66
2019-04-05T21:19:56.201Z,100553.66
2019-04-05T21:22:29.959Z,100559.64
2019-04-05T21:25:05.346Z,100551.47
2019-04-05T21:27:39.092Z,100556.67
2019-04-05T21:30:12.812Z,100540.96
2019-04-05T21:32:46.592Z,100563.97
2019-04-05T21:35:20.392Z,100569.01
2019-04-05T21:37:54.141Z,100556.60
2019-04-05T21:40:27.880Z,100556.60
2019-04-05T21:43:01.636Z,100566.34
2019-04-05T21:45:35.380Z,100557.42
2019-04-05T21:48:09.122Z,100563.14
2019-04-05T21:50:43.450Z,100565.14
2019-04-05T21:53:17.203Z,100565.52
2019-04-05T21:55:50.948Z,100557.48
2019-04-05T21:58:25.937Z,100557.48
2019-04-05T22:00:59.931Z,100564.52
2019-04-05T22:03:33.758Z,100570.97
2019-04-05T22:06:07.547Z,100570.97
2019-04-05T22:08:41.289Z,100569.94
2019-04-05T22:11:15.018Z,100570.88
2019-04-05T22:13:48.784Z,100570.88
2019-04-05T22:16:22.539Z,100565.16
2019-04-05T22:18:56.331Z,100565.16
2019-04-05T22:21:30.621Z,100559.28
2019-04-05T22:24:04.503Z,100559.28
2019-04-05T22:26:38.810Z,100554.95
2019-04-05T22:29:12.896Z,100554.95
2019-04-05T22:31:46.734Z,100560.31
2019-04-05T22:34:20.567Z,100534.62
2019-04-05T22:36:54.399Z,100556.92
2019-04-05T22:39:28.218Z,100556.92
2019-04-05T22:42:01.983Z,100563.58
2019-04-05T22:44:40.134Z,100565.00
2019-04-05T22:47:11.270Z,100565.11
2019-04-05T22:49:45.036Z,100567.18
2019-04-05T22:52:18.782Z,100567.18
2019-04-05T22:54:52.556Z,100542.36
2019-04-05T22:57:26.273Z,100538.42
2019-04-05T23:00:00.040Z,100530.30
2019-04-05T23:02:33.796Z,100537.83
2019-04-05T23:05:07.548Z,100537.83
2019-04-05T23:07:41.300Z,100535.50
2019-04-05T23:10:15.415Z,100535.50
2019-04-05T23:12:49.189Z,100536.00
2019-04-05T23:15:22.935Z,100534.28
2019-04-05T23:17:56.683Z,100536.98
2019-04-05T23:20:30.428Z,100536.98
2019-04-05T23:23:04.165Z,100520.55
2019-04-05T23:25:37.919Z,100523.39
2019-04-05T23:28:11.997Z,100523.39
2019-04-05T23:30:45.748Z,100528.74
2019-04-05T23:33:19.496Z,100528.74
2019-04-05T23:35:53.246Z,100527.72
2019-04-05T23:38:26.994Z,100544.97
2019-04-05T23:41:01.029Z,100547.06
2019-04-05T23:43:34.771Z,100547.06
2019-04-05T23:46:08.555Z,100551.97
2019-04-05T23:48:42.319Z,100560.77
2019-04-05T23:51:16.086Z,100564.41
2019-04-05T23:53:49.845Z,100565.22
2019-04-05T23:56:23.671Z,100565.22
2019-04-05T23:58:57.433Z,100569.54
